createdAt,value
2022-07-26T00:00:10.722Z,96956.59
2022-07-26T00:02:39.487Z,96958.47
2022-07-26T00:05:16.832Z,96958.50
2022-07-26T00:07:47.839Z,96960.09
2022-07-26T00:10:16.256Z,96948.59
2022-07-26T00:12:44.159Z,96949.00
2022-07-26T00:15:13.231Z,96949.00
2022-07-26T00:17:41.097Z,96940.19
2022-07-26T00:20:09.206Z,96945.72
2022-07-26T00:22:36.931Z,96942.22
2022-07-26T00:25:10.193Z,96935.00
2022-07-26T00:27:39.064Z,96938.69
2022-07-26T00:30:12.031Z,96936.63
2022-07-26T00:32:40.171Z,96933.97
2022-07-26T00:35:09.533Z,96935.41
2022-07-26T00:37:38.053Z,96927.22
2022-07-26T00:40:06.888Z,96926.78
2022-07-26T00:42:37.296Z,96927.94
2022-07-26T00:45:07.039Z,96930.81
2022-07-26T00:47:36.164Z,96924.47
2022-07-26T00:50:06.978Z,96925.50
2022-07-26T00:52:34.546Z,96924.66
2022-07-26T00:55:02.240Z,96924.47
2022-07-26T00:57:29.890Z,96920.97
2022-07-26T01:00:01.710Z,96923.47
2022-07-26T01:02:28.943Z,96921.16
2022-07-26T01:04:56.275Z,96924.38
2022-07-26T01:07:24.108Z,96919.69
2022-07-26T01:09:51.368Z,96913.53
2022-07-26T01:12:18.591Z,96918.84
2022-07-26T01:14:46.587Z,96921.69
2022-07-26T01:17:15.519Z,96912.25
2022-07-26T01:19:43.186Z,96912.44
2022-07-26T01:22:14.310Z,96908.09
2022-07-26T01:24:42.666Z,96908.69
2022-07-26T01:27:10.186Z,96903.78
2022-07-26T01:29:40.636Z,96902.31
2022-07-26T01:32:08.885Z,96896.34
2022-07-26T01:34:36.352Z,96903.31
2022-07-26T01:37:04.174Z,96905.38
2022-07-26T01:39:31.483Z,96897.75
2022-07-26T01:41:59.638Z,96896.50
2022-07-26T01:44:26.990Z,96890.75
2022-07-26T01:46:54.240Z,96904.50
2022-07-26T01:49:21.596Z,96893.59
2022-07-26T01:51:48.976Z,96884.97
2022-07-26T01:54:16.400Z,96893.16
2022-07-26T01:56:51.741Z,96889.44
2022-07-26T01:59:19.179Z,96884.13
2022-07-26T02:01:46.281Z,96886.13
2022-07-26T02:04:33.526Z,96888.97
2022-07-26T02:07:00.857Z,96887.31
2022-07-26T02:09:39.535Z,96886.06
2022-07-26T02:12:07.431Z,96887.69
2022-07-26T02:14:34.512Z,96886.06
2022-07-26T02:17:01.805Z,96884.84
2022-07-26T02:19:30.137Z,96885.47
2022-07-26T02:21:57.793Z,96877.06
2022-07-26T02:24:27.536Z,96882.38
2022-07-26T02:26:56.315Z,96877.22
2022-07-26T02:29:24.770Z,96876.22
2022-07-26T02:32:00.165Z,96880.75
2022-07-26T02:34:29.905Z,96870.25
2022-07-26T02:36:59.974Z,96885.19
2022-07-26T02:39:27.891Z,96881.50
2022-07-26T02:42:00.383Z,96884.94
2022-07-26T02:44:28.860Z,96892.91
2022-07-26T02:46:56.062Z,96890.91
2022-07-26T02:49:23.880Z,96893.91
2022-07-26T02:51:52.522Z,96883.84
2022-07-26T02:54:19.891Z,96902.06
2022-07-26T02:56:47.045Z,96895.69
2022-07-26T02:59:14.117Z,96905.94
2022-07-26T03:01:41.158Z,96897.69
2022-07-26T03:04:08.815Z,96907.53
2022-07-26T03:06:35.941Z,96896.06
2022-07-26T03:09:03.683Z,96891.13
2022-07-26T03:11:45.847Z,96900.56
2022-07-26T03:14:12.983Z,96909.19
2022-07-26T03:16:45.500Z,96901.00
2022-07-26T03:19:12.515Z,96898.16
2022-07-26T03:21:39.751Z,96905.31
2022-07-26T03:24:07.535Z,96906.34
2022-07-26T03:26:34.808Z,96906.34
2022-07-26T03:29:01.917Z,96905.31
2022-07-26T03:31:29.055Z,96904.69
2022-07-26T03:34:04.061Z,96906.13
2022-07-26T03:36:31.341Z,96911.91
2022-07-26T03:38:58.536Z,96907.22
2022-07-26T03:41:25.584Z,96910.16
2022-07-26T03:43:52.671Z,96920.78
2022-07-26T03:46:19.847Z,96909.69
2022-07-26T03:48:46.901Z,96914.66
2022-07-26T03:51:14.131Z,96912.44
2022-07-26T03:53:41.241Z,96910.41
2022-07-26T03:56:26.822Z,96912.88
2022-07-26T03:58:53.983Z,96917.16
2022-07-26T04:01:21.704Z,96916.59
2022-07-26T04:03:48.569Z,96916.22
2022-07-26T04:06:16.600Z,96917.88
2022-07-26T04:08:44.689Z,96903.53
2022-07-26T04:11:11.818Z,96910.94
2022-07-26T04:13:38.963Z,96914.50
2022-07-26T04:16:06.597Z,96903.09
2022-07-26T04:18:33.851Z,96906.41
2022-07-26T04:21:00.990Z,96896.09
2022-07-26T04:23:28.311Z,96891.28
2022-07-26T04:25:55.760Z,96900.84
2022-07-26T04:28:22.970Z,96893.28
2022-07-26T04:30:50.439Z,96894.16
2022-07-26T04:33:17.492Z,96895.44
2022-07-26T04:35:44.602Z,96897.91
2022-07-26T04:38:11.792Z,96887.16
2022-07-26T04:40:40.383Z,96883.22
2022-07-26T04:43:10.093Z,96887.84
2022-07-26T04:45:42.565Z,96879.84
2022-07-26T04:48:09.861Z,96884.22
2022-07-26T04:50:37.073Z,96881.16
2022-07-26T04:53:04.577Z,96878.44
2022-07-26T04:55:32.054Z,96882.06
2022-07-26T04:57:59.831Z,96877.41
2022-07-26T05:00:26.951Z,96879.09
2022-07-26T05:02:59.884Z,96885.75
2022-07-26T05:05:29.654Z,96869.84
2022-07-26T05:07:59.397Z,96869.56
2022-07-26T05:10:33.692Z,96875.91
2022-07-26T05:13:01.186Z,96868.63
2022-07-26T05:15:35.003Z,96858.25
2022-07-26T05:18:13.614Z,96857.00
2022-07-26T05:20:41.317Z,96855.72
2022-07-26T05:23:08.562Z,96854.69
2022-07-26T05:25:37.253Z,96854.44
2022-07-26T05:28:04.701Z,96853.63
2022-07-26T05:30:34.298Z,96852.91
2022-07-26T05:33:01.610Z,96846.13
2022-07-26T05:35:28.664Z,96852.50
2022-07-26T05:37:55.913Z,96853.28
2022-07-26T05:40:25.126Z,96852.78
2022-07-26T05:42:52.159Z,96848.72
2022-07-26T05:45:19.406Z,96852.44
2022-07-26T05:47:49.499Z,96855.13
2022-07-26T05:50:16.665Z,96849.31
2022-07-26T05:52:44.129Z,96835.13
2022-07-26T05:55:11.094Z,96837.44
2022-07-26T05:57:41.879Z,96834.00
2022-07-26T06:00:12.250Z,96837.38
2022-07-26T06:02:39.679Z,96836.34
2022-07-26T06:05:07.831Z,96834.75
2022-07-26T06:07:34.930Z,96837.50
2022-07-26T06:10:01.913Z,96833.94
2022-07-26T06:12:28.943Z,96821.75
2022-07-26T06:14:56.476Z,96818.47
2022-07-26T06:17:23.580Z,96817.63
2022-07-26T06:19:50.813Z,96814.56
2022-07-26T06:22:17.842Z,96814.22
2022-07-26T06:24:44.925Z,96807.25
2022-07-26T06:27:12.441Z,96808.22
2022-07-26T06:29:40.730Z,96806.97
2022-07-26T06:32:07.872Z,96800.22
2022-07-26T06:34:35.126Z,96803.44
2022-07-26T06:37:02.208Z,96795.53
2022-07-26T06:39:29.388Z,96800.44
2022-07-26T06:41:56.443Z,96796.50
2022-07-26T06:44:23.463Z,96790.19
2022-07-26T06:46:50.582Z,96797.66
2022-07-26T06:49:22.044Z,96790.13
2022-07-26T06:51:49.862Z,96789.88
2022-07-26T06:54:17.122Z,96791.66
2022-07-26T06:56:44.021Z,96785.94
2022-07-26T06:59:11.162Z,96779.94
2022-07-26T07:01:57.714Z,96786.41
2022-07-26T07:04:25.128Z,96778.09
2022-07-26T07:06:52.339Z,96775.72
2022-07-26T07:09:19.886Z,96776.69
2022-07-26T07:11:51.856Z,96788.00
2022-07-26T07:14:28.591Z,96780.47
2022-07-26T07:16:57.083Z,96789.78
2022-07-26T07:19:24.585Z,96784.44
2022-07-26T07:21:52.466Z,96785.66
2022-07-26T07:24:23.679Z,96785.97
2022-07-26T07:26:51.139Z,96790.59
2022-07-26T07:29:21.075Z,96785.00
2022-07-26T07:31:49.750Z,96790.25
2022-07-26T07:34:23.979Z,96788.28
2022-07-26T07:36:51.740Z,96787.81
2022-07-26T07:39:27.313Z,96796.94
2022-07-26T07:42:01.841Z,96788.81
2022-07-26T07:44:28.942Z,96797.25
2022-07-26T07:46:56.025Z,96793.22
2022-07-26T07:49:23.603Z,96784.31
2022-07-26T07:51:50.740Z,96791.72
2022-07-26T07:54:18.523Z,96798.34
2022-07-26T07:56:45.616Z,96785.19
2022-07-26T07:59:13.081Z,96785.16
2022-07-26T08:01:41.167Z,96780.16
2022-07-26T08:04:09.607Z,96783.78
2022-07-26T08:06:37.205Z,96780.94
2022-07-26T08:09:06.422Z,96784.38
2022-07-26T08:11:34.292Z,96780.19
2022-07-26T08:14:02.321Z,96780.25
2022-07-26T08:16:29.598Z,96779.03
2022-07-26T08:18:57.346Z,96774.69
2022-07-26T08:21:28.109Z,96776.59
2022-07-26T08:23:57.110Z,96769.84
2022-07-26T08:26:24.736Z,96770.72
2022-07-26T08:29:09.821Z,96775.78
2022-07-26T08:31:37.249Z,96769.75
2022-07-26T08:34:04.556Z,96773.19
2022-07-26T08:36:32.972Z,96767.88
2022-07-26T08:39:01.600Z,96766.84
2022-07-26T08:41:29.619Z,96752.59
2022-07-26T08:44:05.514Z,96757.41
2022-07-26T08:46:36.263Z,96757.16
2022-07-26T08:49:03.846Z,96747.31
2022-07-26T08:51:31.810Z,96756.34
2022-07-26T08:54:06.121Z,96750.88
2022-07-26T08:56:41.080Z,96741.81
2022-07-26T08:59:21.224Z,96750.19
2022-07-26T09:02:06.927Z,96739.91
2022-07-26T09:04:43.581Z,96747.84
2022-07-26T09:07:16.759Z,96739.44
2022-07-26T09:10:00.119Z,96748.34
2022-07-26T09:12:29.925Z,96745.88
2022-07-26T09:15:00.320Z,96742.25
2022-07-26T09:17:39.887Z,96740.66
2022-07-26T09:20:15.983Z,96730.53
2022-07-26T09:23:05.375Z,96730.22
2022-07-26T09:25:41.295Z,96732.50
2022-07-26T09:28:23.226Z,96729.31
2022-07-26T09:31:06.491Z,96733.44
2022-07-26T09:33:47.610Z,96735.84
2022-07-26T09:36:16.310Z,96727.78
2022-07-26T09:38:44.665Z,96722.94
2022-07-26T09:41:27.365Z,96726.66
2022-07-26T09:43:56.717Z,96720.50
2022-07-26T09:46:26.445Z,96716.50
2022-07-26T09:49:11.938Z,96719.56
2022-07-26T09:51:49.122Z,96721.47
2022-07-26T09:54:29.244Z,96719.41
2022-07-26T09:56:56.936Z,96717.19
2022-07-26T09:59:25.555Z,96702.16
2022-07-26T10:01:55.129Z,96704.41
2022-07-26T10:04:22.981Z,96705.41
2022-07-26T10:06:53.309Z,96699.66
2022-07-26T10:09:23.153Z,96703.09
2022-07-26T10:12:00.900Z,96698.09
2022-07-26T10:14:38.321Z,96695.59
2022-07-26T10:17:29.210Z,96701.56
2022-07-26T10:20:10.715Z,96691.91
2022-07-26T10:22:47.231Z,96693.72
2022-07-26T10:25:20.464Z,96697.91
2022-07-26T10:28:00.820Z,96694.28
2022-07-26T10:30:34.916Z,96691.72
2022-07-26T10:33:16.157Z,96691.47
2022-07-26T10:35:43.815Z,96692.56
2022-07-26T10:38:24.749Z,96680.25
2022-07-26T10:40:59.015Z,96683.00
2022-07-26T10:43:43.979Z,96666.72
2022-07-26T10:46:17.227Z,96674.38
2022-07-26T10:49:06.680Z,96673.50
2022-07-26T10:51:41.707Z,96676.47
2022-07-26T10:54:12.414Z,96671.63
2022-07-26T10:56:43.158Z,96668.03
2022-07-26T10:59:10.438Z,96664.13
2022-07-26T11:01:40.201Z,96660.00
2022-07-26T11:04:21.854Z,96663.56
2022-07-26T11:06:49.281Z,96661.00
2022-07-26T11:09:19.041Z,96656.78
2022-07-26T11:11:48.973Z,96644.53
2022-07-26T11:14:18.221Z,96639.31
2022-07-26T11:16:50.700Z,96639.34
2022-07-26T11:19:26.245Z,96645.25
2022-07-26T11:22:01.128Z,96640.00
2022-07-26T11:24:29.464Z,96634.66
2022-07-26T11:27:02.562Z,96634.13
2022-07-26T11:29:39.000Z,96633.91
2022-07-26T11:32:22.467Z,96630.13
2022-07-26T11:35:00.786Z,96609.84
2022-07-26T11:37:28.146Z,96616.13
2022-07-26T11:39:56.029Z,96611.91
2022-07-26T11:42:23.239Z,96611.22
2022-07-26T11:44:51.104Z,96614.19
2022-07-26T11:47:20.526Z,96610.75
2022-07-26T11:50:00.865Z,96621.88
2022-07-26T11:52:36.483Z,96605.34
2022-07-26T11:55:03.694Z,96601.38
2022-07-26T11:57:32.387Z,96596.41
2022-07-26T12:00:00.902Z,96596.44
2022-07-26T12:02:30.761Z,96594.19
2022-07-26T12:05:19.886Z,96586.78
2022-07-26T12:07:57.335Z,96576.63
2022-07-26T12:10:25.224Z,96584.38
2022-07-26T12:13:07.766Z,96592.25
2022-07-26T12:15:51.296Z,96574.19
2022-07-26T12:18:27.341Z,96573.84
2022-07-26T12:21:04.131Z,96574.88
2022-07-26T12:23:46.553Z,96563.34
2022-07-26T12:26:23.858Z,96556.22
2022-07-26T12:28:57.052Z,96561.75
2022-07-26T12:31:29.510Z,96556.56
2022-07-26T12:33:57.051Z,96562.06
2022-07-26T12:36:27.396Z,96553.03
2022-07-26T12:39:00.965Z,96557.25
2022-07-26T12:41:40.204Z,96556.56
2022-07-26T12:44:12.161Z,96552.94
2022-07-26T12:46:39.966Z,96548.03
2022-07-26T12:49:07.389Z,96545.88
2022-07-26T12:51:35.010Z,96547.09
2022-07-26T12:54:06.726Z,96544.13
2022-07-26T12:56:34.209Z,96548.88
2022-07-26T12:59:01.832Z,96549.91
2022-07-26T13:01:30.716Z,96541.44
2022-07-26T13:03:58.453Z,96542.13
2022-07-26T13:06:26.041Z,96538.31
2022-07-26T13:08:53.869Z,96533.25
2022-07-26T13:11:21.197Z,96539.03
2022-07-26T13:13:49.832Z,96540.94
2022-07-26T13:16:17.254Z,96530.88
2022-07-26T13:18:44.324Z,96529.47
2022-07-26T13:21:11.859Z,96528.56
2022-07-26T13:23:39.212Z,96533.97
2022-07-26T13:26:09.084Z,96529.41
2022-07-26T13:28:36.936Z,96541.78
2022-07-26T13:31:04.435Z,96535.38
2022-07-26T13:33:33.119Z,96532.28
2022-07-26T13:36:00.503Z,96539.84
2022-07-26T13:38:28.620Z,96529.91
2022-07-26T13:40:56.812Z,96530.19
2022-07-26T13:43:24.528Z,96533.41
2022-07-26T13:45:51.914Z,96524.16
2022-07-26T13:48:18.891Z,96534.16
2022-07-26T13:50:46.530Z,96530.19
2022-07-26T13:53:14.025Z,96522.25
2022-07-26T13:55:41.596Z,96521.19
2022-07-26T13:58:11.826Z,96524.28
2022-07-26T14:00:40.615Z,96522.81
2022-07-26T14:03:08.145Z,96525.63
2022-07-26T14:05:35.667Z,96528.19
2022-07-26T14:08:02.727Z,96513.88
2022-07-26T14:10:30.062Z,96520.72
2022-07-26T14:12:57.216Z,96520.19
2022-07-26T14:15:24.658Z,96501.19
2022-07-26T14:17:52.924Z,96517.81
2022-07-26T14:20:21.273Z,96508.53
2022-07-26T14:22:48.767Z,96507.88
2022-07-26T14:25:15.870Z,96504.81
2022-07-26T14:27:42.987Z,96503.19
2022-07-26T14:30:10.867Z,96502.41
2022-07-26T14:32:38.270Z,96497.38
2022-07-26T14:35:09.003Z,96494.31
2022-07-26T14:37:43.977Z,96491.69
2022-07-26T14:40:14.930Z,96497.13
2022-07-26T14:42:42.131Z,96497.94
2022-07-26T14:45:10.276Z,96490.16
2022-07-26T14:47:38.281Z,96494.06
2022-07-26T14:50:08.057Z,96487.56
2022-07-26T14:52:44.366Z,96496.94
2022-07-26T14:55:12.253Z,96491.97
2022-07-26T14:57:40.373Z,96489.44
2022-07-26T15:00:12.963Z,96484.44
2022-07-26T15:02:45.895Z,96482.84
2022-07-26T15:05:14.866Z,96481.81
2022-07-26T15:07:42.879Z,96485.13
2022-07-26T15:10:12.486Z,96483.72
2022-07-26T15:12:40.002Z,96478.25
2022-07-26T15:15:08.881Z,96489.38
2022-07-26T15:17:36.263Z,96475.69
2022-07-26T15:20:04.266Z,96485.50
2022-07-26T15:22:31.446Z,96476.34
2022-07-26T15:24:58.665Z,96477.44
2022-07-26T15:27:25.748Z,96477.63
2022-07-26T15:29:52.840Z,96468.28
2022-07-26T15:32:21.598Z,96468.28
2022-07-26T15:34:49.061Z,96466.00
2022-07-26T15:37:16.319Z,96475.63
2022-07-26T15:39:43.433Z,96476.63
2022-07-26T15:42:10.708Z,96476.97
2022-07-26T15:44:44.693Z,96465.69
2022-07-26T15:47:15.537Z,96471.78
2022-07-26T15:49:59.985Z,96466.16
2022-07-26T15:52:27.131Z,96468.25
2022-07-26T15:54:54.517Z,96468.56
2022-07-26T15:57:21.635Z,96465.19
2022-07-26T15:59:49.014Z,96467.25
2022-07-26T16:02:16.228Z,96473.56
2022-07-26T16:04:43.367Z,96469.34
2022-07-26T16:07:10.365Z,96463.69
2022-07-26T16:09:37.512Z,96467.50
2022-07-26T16:12:06.243Z,96470.19
2022-07-26T16:14:33.485Z,96476.72
2022-07-26T16:17:02.195Z,96470.50
2022-07-26T16:19:29.573Z,96484.75
2022-07-26T16:21:57.035Z,96488.19
2022-07-26T16:24:25.787Z,96480.16
2022-07-26T16:26:53.420Z,96492.41
2022-07-26T16:29:20.806Z,96489.81
2022-07-26T16:31:48.350Z,96483.53
2022-07-26T16:34:15.813Z,96496.25
2022-07-26T16:36:42.945Z,96487.69
2022-07-26T16:39:10.422Z,96481.19
2022-07-26T16:41:38.169Z,96483.03
2022-07-26T16:44:05.906Z,96490.41
2022-07-26T16:46:32.915Z,96482.91
2022-07-26T16:49:00.225Z,96482.25
2022-07-26T16:51:27.621Z,96486.44
2022-07-26T16:53:55.632Z,96488.69
2022-07-26T16:56:28.837Z,96490.28
2022-07-26T16:58:56.219Z,96486.44
2022-07-26T17:01:23.980Z,96498.91
2022-07-26T17:03:51.129Z,96504.75
2022-07-26T17:06:18.606Z,96499.50
2022-07-26T17:11:33.563Z,96511.81
2022-07-26T17:14:13.851Z,96518.44
2022-07-26T17:16:44.443Z,96523.44
2022-07-26T17:19:24.358Z,96516.53
2022-07-26T17:21:56.031Z,96520.50
2022-07-26T17:24:23.439Z,96516.78
2022-07-26T17:26:50.588Z,96513.63
2022-07-26T17:29:17.503Z,96525.59
2022-07-26T17:31:44.291Z,96516.19
2022-07-26T17:34:11.570Z,96523.28
2022-07-26T17:36:43.095Z,96523.03
2022-07-26T17:39:23.329Z,96521.44
2022-07-26T17:42:20.684Z,96525.78
2022-07-26T17:44:49.837Z,96528.50
2022-07-26T17:47:29.371Z,96530.66
2022-07-26T17:52:57.678Z,96536.53
2022-07-26T17:55:25.143Z,96537.03
2022-07-26T17:57:54.843Z,96534.03
2022-07-26T18:00:27.011Z,96532.59
2022-07-26T18:03:00.357Z,96537.16
2022-07-26T18:05:34.980Z,96539.50
2022-07-26T18:08:04.655Z,96537.56
2022-07-26T18:10:31.891Z,96543.19
2022-07-26T18:12:58.936Z,96542.50
2022-07-26T18:15:28.392Z,96540.00
2022-07-26T18:17:56.192Z,96554.28
2022-07-26T18:20:24.209Z,96558.28
2022-07-26T18:22:54.343Z,96560.63
2022-07-26T18:25:22.348Z,96571.06
2022-07-26T18:27:50.347Z,96578.72
2022-07-26T18:30:24.914Z,96578.09
2022-07-26T18:32:54.633Z,96577.16
2022-07-26T18:35:22.511Z,96581.94
2022-07-26T18:37:50.885Z,96579.59
2022-07-26T18:40:18.397Z,96581.03
2022-07-26T18:42:46.445Z,96590.94
2022-07-26T18:45:15.504Z,96594.56
2022-07-26T18:47:43.280Z,96590.84
2022-07-26T18:50:16.986Z,96595.53
2022-07-26T18:52:52.524Z,96595.41
2022-07-26T18:55:21.179Z,96596.41
2022-07-26T18:57:48.841Z,96592.25
2022-07-26T19:00:24.176Z,96594.47
2022-07-26T19:02:53.466Z,96602.00
2022-07-26T19:05:23.035Z,96604.94
2022-07-26T19:07:51.291Z,96609.31
2022-07-26T19:10:28.680Z,96599.56
2022-07-26T19:12:55.956Z,96607.53
2022-07-26T19:15:23.690Z,96607.47
2022-07-26T19:17:51.012Z,96611.59
2022-07-26T19:20:18.335Z,96608.84
2022-07-26T19:22:47.665Z,96600.66
2022-07-26T19:25:16.729Z,96606.94
2022-07-26T19:27:44.225Z,96610.63
2022-07-26T19:30:11.802Z,96609.16
2022-07-26T19:32:39.939Z,96604.44
2022-07-26T19:35:08.127Z,96603.56
2022-07-26T19:37:35.690Z,96603.78
2022-07-26T19:40:04.237Z,96600.91
2022-07-26T19:42:32.518Z,96597.91
2022-07-26T19:45:00.675Z,96602.16
2022-07-26T19:47:30.116Z,96602.28
2022-07-26T19:49:57.985Z,96610.50
2022-07-26T19:52:25.654Z,96604.06
2022-07-26T19:54:53.200Z,96603.25
2022-07-26T19:57:20.394Z,96596.75
2022-07-26T19:59:47.939Z,96601.44
2022-07-26T20:02:16.379Z,96601.19
2022-07-26T20:04:46.262Z,96599.78
2022-07-26T20:07:21.648Z,96603.44
2022-07-26T20:09:50.427Z,96602.97
2022-07-26T20:12:18.779Z,96606.94
2022-07-26T20:14:46.443Z,96607.06
2022-07-26T20:17:14.951Z,96611.06
2022-07-26T20:19:42.326Z,96609.56
2022-07-26T20:22:09.597Z,96609.19
2022-07-26T20:24:38.523Z,96611.03
2022-07-26T20:27:08.613Z,96605.41
2022-07-26T20:29:36.575Z,96606.47
2022-07-26T20:32:04.225Z,96611.47
2022-07-26T20:34:31.608Z,96618.94
2022-07-26T20:36:58.955Z,96615.91
2022-07-26T20:39:28.213Z,96612.50
2022-07-26T20:41:55.695Z,96614.34
2022-07-26T20:44:28.213Z,96618.66
2022-07-26T20:46:56.049Z,96624.78
2022-07-26T20:49:23.843Z,96619.56
2022-07-26T20:51:51.680Z,96619.47
2022-07-26T20:54:19.965Z,96616.00
2022-07-26T20:56:47.452Z,96613.56
2022-07-26T20:59:14.942Z,96615.22
2022-07-26T21:01:44.120Z,96614.41
2022-07-26T21:04:12.389Z,96618.91
2022-07-26T21:06:40.421Z,96612.19
2022-07-26T21:09:09.737Z,96612.78
2022-07-26T21:11:38.311Z,96621.88
2022-07-26T21:14:20.354Z,96612.78
2022-07-26T21:16:50.787Z,96618.47
2022-07-26T21:19:18.052Z,96612.38
2022-07-26T21:21:47.533Z,96619.25
2022-07-26T21:24:14.985Z,96612.66
2022-07-26T21:26:42.290Z,96611.66
2022-07-26T21:29:13.167Z,96613.88
2022-07-26T21:31:40.791Z,96615.81
2022-07-26T21:34:08.091Z,96609.06
2022-07-26T21:36:39.259Z,96612.41
2022-07-26T21:39:07.820Z,96614.47
2022-07-26T21:41:35.934Z,96607.81
2022-07-26T21:44:04.215Z,96607.19
2022-07-26T21:46:31.982Z,96617.47
2022-07-26T21:51:43.320Z,96612.25
2022-07-26T21:54:10.549Z,96604.59
2022-07-26T21:56:41.088Z,96604.91
2022-07-26T21:59:11.350Z,96602.75
2022-07-26T22:01:41.654Z,96607.94
2022-07-26T22:04:10.656Z,96607.94
2022-07-26T22:06:41.202Z,96601.81
2022-07-26T22:09:08.699Z,96602.25
2022-07-26T22:11:39.875Z,96593.47
2022-07-26T22:14:08.846Z,96601.38
2022-07-26T22:16:36.636Z,96603.00
2022-07-26T22:19:03.970Z,96597.63
2022-07-26T22:21:31.406Z,96611.47
2022-07-26T22:23:58.767Z,96603.44
2022-07-26T22:26:31.399Z,96608.19
2022-07-26T22:29:00.110Z,96600.38
2022-07-26T22:31:27.485Z,96596.28
2022-07-26T22:33:54.846Z,96597.22
2022-07-26T22:36:22.081Z,96595.66
2022-07-26T22:38:49.345Z,96594.09
2022-07-26T22:41:16.634Z,96596.53
2022-07-26T22:43:46.448Z,96599.06
2022-07-26T22:46:13.846Z,96599.47
2022-07-26T22:48:44.541Z,96608.56
2022-07-26T22:51:15.378Z,96594.75
2022-07-26T22:53:42.557Z,96595.38
2022-07-26T22:56:10.122Z,96604.00
2022-07-26T22:58:38.779Z,96595.00
2022-07-26T23:01:06.233Z,96597.66
2022-07-26T23:03:33.345Z,96597.94
2022-07-26T23:06:03.706Z,96604.53
2022-07-26T23:08:46.990Z,96607.22
2022-07-26T23:11:14.842Z,96603.31
2022-07-26T23:13:42.192Z,96606.63
2022-07-26T23:16:09.647Z,96609.59
2022-07-26T23:18:37.028Z,96616.97
2022-07-26T23:21:04.560Z,96607.09
2022-07-26T23:23:32.043Z,96610.81
2022-07-26T23:26:00.533Z,96614.16
2022-07-26T23:28:37.293Z,96611.34
2022-07-26T23:31:11.235Z,96613.44
2022-07-26T23:33:53.490Z,96608.34
2022-07-26T23:36:26.685Z,96611.28
2022-07-26T23:38:55.881Z,96611.47
2022-07-26T23:41:23.788Z,96619.28
2022-07-26T23:43:51.618Z,96624.63
2022-07-26T23:46:19.121Z,96618.88
2022-07-26T23:48:46.763Z,96614.94
2022-07-26T23:51:14.389Z,96620.06
2022-07-26T23:53:41.638Z,96619.94
2022-07-26T23:56:08.972Z,96619.09
2022-07-26T23:58:36.198Z,96607.41
